Aplicació Alertes

Dades de l'estació automàtica Gurb

?
?
Resum diari 22:30 TU
Dades diàries de l'estació meteorològica
Temperatura mitjana 1.7 °C
Temperatura màxima 9.8 °C 14:38 TU
Temperatura mínima -4.9 °C 7:12 TU
Humitat relativa mitjana 58%
Precipitació acumulada 0.0 mm
Ratxa màxima del vent (2 m) 18.7 km/h - 56º 3:45 TU
Irradiació solar global 9.5 MJ/m2

El tram horari està expressat en Temps Universal (TU). Cal sumar una hora en horari d'hivern i dues en horari d'estiu per passar a l'hora oficial.

Gurb

Metadades estació meteorol´gica
Municipi Gurb
Comarca Osona
Altitud 509 m
Data alta 31.03.1999
Estat actual Operativa
Dades de període
Període
TU
TM
°C
TX
°C
TN
°C
HRM
%
PPT
mm
VVM (2 m)
km/h
DVM (2 m)
graus
VVX (2 m)
km/h
RS
W/m2
00:00 - 00:30 1.6 2.1 1.0 45 0.0 2.9 280 9.0 0
00:30 - 01:00 0.8 1.9 -0.6 49 0.0 2.5 352 9.0 0
01:00 - 01:30 0.1 1.0 -1.0 55 0.0 3.6 341 8.3 0
01:30 - 02:00 -1.2 -0.9 -1.6 66 0.0 4.3 15 13.0 0
02:00 - 02:30 -1.7 -1.3 -2.0 70 0.0 1.4 305 4.3 0
02:30 - 03:00 -0.8 0.3 -1.6 62 0.0 2.2 272 5.8 0
03:00 - 03:30 -0.3 0.8 -1.6 58 0.0 1.1 281 4.3 0
03:30 - 04:00 -1.3 0.2 -2.7 65 0.0 5.0 8 18.7 0
04:00 - 04:30 -2.6 -2.2 -3.0 73 0.0 3.2 326 6.5 0
04:30 - 05:00 -1.8 -0.9 -2.6 67 0.0 5.4 314 12.6 0
05:00 - 05:30 -2.7 -2.1 -3.1 70 0.0 3.2 241 7.2 0
05:30 - 06:00 -3.5 -2.6 -4.3 75 0.0 2.9 350 10.4 0
06:00 - 06:30 -3.9 -3.6 -4.5 78 0.0 0.7 293 3.2 0
06:30 - 07:00 -3.5 -3.1 -3.8 76 0.0 2.9 319 6.5 0
07:00 - 07:30 -4.5 -3.4 -4.9 80 0.0 1.4 261 4.0 8
07:30 - 08:00 -3.8 -2.2 -4.5 79 0.0 2.2 305 6.5 67
08:00 - 08:30 -2.1 -1.7 -2.7 72 0.0 2.5 146 6.5 145
08:30 - 09:00 -1.2 -0.3 -2.1 69 0.0 2.9 201 6.1 218
09:00 - 09:30 0.8 1.9 -0.2 61 0.0 5.0 198 9.0 286
09:30 - 10:00 3.1 3.7 1.9 47 0.0 2.5 157 5.0 346
10:00 - 10:30 3.2 3.6 2.9 47 0.0 3.6 81 9.0 392
10:30 - 11:00 3.7 4.0 3.4 48 0.0 6.1 54 11.9 426
11:00 - 11:30 4.3 4.8 4.0 49 0.0 6.8 71 14.8 446
11:30 - 12:00 5.6 6.3 4.8 42 0.0 5.8 77 11.5 456
12:00 - 12:30 7.3 8.0 6.2 39 0.0 6.1 48 12.2 509
12:30 - 13:00 8.0 8.2 7.8 37 0.0 7.6 70 12.6 470
13:00 - 13:30 8.4 8.9 8.0 36 0.0 5.0 49 10.4 411
13:30 - 14:00 8.8 9.1 8.5 36 0.0 5.4 94 10.1 352
14:00 - 14:30 9.2 9.4 9.1 36 0.0 5.4 120 14.4 287
14:30 - 15:00 9.5 9.8 9.3 37 0.0 6.8 199 15.5 219
15:00 - 15:30 9.2 9.6 8.8 36 0.0 4.3 230 11.9 149
15:30 - 16:00 8.3 8.8 7.5 36 0.0 3.6 230 11.9 67
16:00 - 16:30 6.4 7.3 5.4 43 0.0 2.9 163 9.0 8
16:30 - 17:00 5.2 5.6 4.9 46 0.0 4.0 218 7.6 1
17:00 - 17:30 4.9 5.3 4.6 48 0.0 3.2 245 9.0 0
17:30 - 18:00 3.9 5.2 2.6 52 0.0 1.8 282 6.8 0
18:00 - 18:30 2.5 4.0 1.4 57 0.0 1.1 291 4.3 0
18:30 - 19:00 1.9 2.7 0.3 59 0.0 1.1 314 3.2 0
19:00 - 19:30 1.3 2.8 -0.2 63 0.0 2.9 328 10.1 0
19:30 - 20:00 -0.3 -0.2 -0.5 70 0.0 0.7 277 2.9 0
20:00 - 20:30 -0.7 -0.2 -1.4 72 0.0 1.1 291 4.7 0
20:30 - 21:00 -0.2 0.5 -0.8 70 0.0 0.7 337 5.4 0
21:00 - 21:30 -0.9 -0.7 -1.1 73 0.0 2.5 354 6.8 0
21:30 - 22:00 -1.2 -0.8 -1.8 75 0.0 1.8 302 7.9 0
22:00 - 22:30 -1.9 -1.3 -2.7 79 0.0 1.8 252 6.1 0
22:30 - 23:00 (s/d) (s/d) (s/d) (s/d) (s/d) (s/d) (s/d) (s/d) (s/d)
23:00 - 23:30 (s/d) (s/d) (s/d) (s/d) (s/d) (s/d) (s/d) (s/d) (s/d)

Les dades en taronja només han passat un control de qualitat automàtic. Resta pendent la seva validació definitiva.